Kotor-Varos, Bosnia and Herzegovina
Current Conditions -  °F | °C
As of 10:30 AM on Sunday 21 Dec 2014 (Local Time) from LQBK Reporting Station
Light Fog Light Fog  
Wind Chill: 43°   Ceiling: Unl
Heat Index: 43°   Visibility: 6mi
Dew Point: 37°   Wind: 2mph
Humidity: 81%   Direction: 110°ESE
Pressure: 30.36"   Gusts: NA
Location:  44.62°N, 17.37°E
Report Text: LQBK 210830Z 11002KT 9999 MIFG NSC 06/03 Q1028 NOSIG
Loading
Personal Weather Stations






























Interactive Weather Map New forecast layout! Learn more

10-Day Weather Forecast

Advertisements
Track Severe Weather on mobile